Kezdőlap
METAR-TAF:

METAR-TAF

Repülőterek :

Norwood Memorial Airport

Norwood, Massachusetts, Amerikai Egyesült Államok

földrajzi szélesség: 42-11-27N, földrajzi hosszúság: 071-10-26W, magasság: 15 m

Jelenlegi meteorológiai megfigyelések

A jelentés 53 perccel ezelõtt készült, 16:53 UTC
Dél-délnyugati szél 8 kt
Hőmérséklet 13°C
Páratartalom 26%
Légköri nyomás 1020 hPa
Látótávolság: 16.1 km
Derült ég

METAR: KOWD 231653Z 21008KT 10SM CLR 13/M06 A3011 RMK AO2 SLP198 T01281061

Idő: 12:46 (17:46 UTC)


TAF: hiányzik

Meteorológiai megfigyelések és előrejelzések több, mint 4000 repülőtéren (METAR és TAF jelentéseket).

A térképen piros és sárga pontok jelzik az elérhető meteorológiai állomásokat.

Mozgassa az egeret a pont fölött, hogy megjelenjen az állomás neve.

Azután kattintson az időjárási megfigyelések és előrejelzések megtekintéséhez.

A térkép megváltoztatása: kattintson a fekete keresztel jelölt zöld gombra ráközelítéshez, a vonallal jelölt zöld gombra távolításhoz, vagy a zöld nyilakra a szomszédos térképek eléréséhez.


METAR-TAF: